Time;durP1;ratioP1;P1;durP2;ratioP2;P2;SDS_P1;SDS_P2;PMS_P1;PMS_P2;Temp;Humidity;BMP_temperature;BMP_pressure;BME280_temperature;BME280_humidity;BME280_pressure;Samples;Min_cycle;Max_cycle;Signal;HPM_P1;HPM_P2
2022/12/23 00:00:15;;;;;;;14.27;8.40;;;;;;;4.14;72.11;92230.44;2064397;69;20145;-76
2022/12/23 00:02:41;;;;;;;16.35;7.80;;;;;;;4.16;71.95;92241.72;2064369;69;20175;-76
2022/12/23 00:05:07;;;;;;;16.38;7.25;;;;;;;4.14;71.60;92250.69;2064421;69;20223;-76
2022/12/23 00:07:32;;;;;;;14.15;7.63;;;;;;;4.36;71.47;92253.69;2064532;69;20133;-77
2022/12/23 00:09:58;;;;;;;13.75;6.88;;;;;;;4.33;71.34;92250.75;2064370;69;20503;-76
2022/12/23 00:15:09;;;;;;;11.50;6.65;;;;;;;4.38;71.11;92265.00;2064502;69;20178;-77
2022/12/23 00:17:44;;;;;;;10.05;5.65;;;;;;;4.48;71.02;92257.41;2064431;69;20230;-77
2022/12/23 00:20:13;;;;;;;8.80;4.90;;;;;;;4.58;70.94;92269.31;2064562;69;20244;-77
2022/12/23 00:25:39;;;;;;;11.93;6.03;;;;;;;4.41;71.10;92283.34;2064343;69;20137;-77
2022/12/23 00:28:10;;;;;;;11.25;5.75;;;;;;;4.52;71.22;92286.31;2064461;69;20175;-76
2022/12/23 00:30:43;;;;;;;13.82;6.22;;;;;;;4.55;71.20;92290.72;2064303;69;20147;-76
2022/12/23 00:33:09;;;;;;;14.02;5.80;;;;;;;4.51;71.50;92281.31;2064370;69;20604;-77
2022/12/23 00:35:34;;;;;;;12.27;5.53;;;;;;;4.47;72.04;92281.75;2064226;69;20140;-76
2022/12/23 00:38:00;;;;;;;11.45;6.03;;;;;;;4.35;72.08;92269.66;2064232;69;20200;-75
2022/12/23 00:43:09;;;;;;;13.40;5.70;;;;;;;4.56;73.85;92283.84;2064377;69;20125;-75
2022/12/23 00:45:35;;;;;;;13.38;5.78;;;;;;;4.52;73.91;92263.28;2064258;69;20152;-75
2022/12/23 00:50:45;;;;;;;8.93;5.15;;;;;;;4.62;73.35;92250.09;2064543;69;20484;-75
2022/12/23 00:53:11;;;;;;;8.00;3.92;;;;;;;4.66;74.31;92253.19;2064371;69;20144;-76
2022/12/23 00:55:36;;;;;;;7.78;3.88;;;;;;;4.62;75.04;92254.94;2064323;69;20576;-75
2022/12/23 00:58:02;;;;;;;6.07;2.00;;;;;;;4.75;75.85;92238.53;2064188;69;20157;-76
2022/12/23 01:06:01;;;;;;;6.13;2.60;;;;;;;4.78;74.61;92206.69;2064037;69;20515;-75
2022/12/23 01:08:27;;;;;;;4.13;2.20;;;;;;;4.68;76.57;92211.53;2064134;69;20152;-77
2022/12/23 01:10:53;;;;;;;7.63;3.80;;;;;;;4.46;75.92;92207.81;2064571;69;20228;-76
2022/12/23 01:13:19;;;;;;;6.78;3.85;;;;;;;4.68;75.25;92208.75;2064874;69;20175;-77
2022/12/23 01:15:45;;;;;;;7.28;3.60;;;;;;;4.75;74.55;92205.06;2064565;69;20278;-76
2022/12/23 01:18:11;;;;;;;8.15;3.95;;;;;;;4.77;74.58;92219.19;2064087;69;20161;-76
2022/12/23 01:20:37;;;;;;;7.75;3.75;;;;;;;4.78;75.13;92212.28;2064697;69;20164;-76
2022/12/23 01:23:05;;;;;;;5.50;3.33;;;;;;;4.81;75.07;92208.31;2064714;69;20161;-76
2022/12/23 01:25:31;;;;;;;5.85;3.10;;;;;;;4.79;75.59;92222.09;2064657;69;20252;-76
2022/12/23 01:27:56;;;;;;;7.72;3.38;;;;;;;4.53;76.34;92242.44;2064773;69;20134;-76
2022/12/23 01:30:22;;;;;;;8.82;3.85;;;;;;;4.73;75.33;92238.38;2064839;69;20273;-78
2022/12/23 01:32:49;;;;;;;10.55;4.50;;;;;;;4.63;75.88;92231.31;2064745;69;20161;-77
2022/12/23 01:35:15;;;;;;;9.05;3.33;;;;;;;4.68;76.46;92245.00;2064909;69;20147;-74
2022/12/23 01:37:41;;;;;;;6.00;3.63;;;;;;;4.65;76.38;92234.25;2064906;69;20152;-75
2022/12/23 01:40:08;;;;;;;5.82;3.42;;;;;;;4.78;75.39;92242.94;2063937;69;20224;-75
2022/12/23 01:42:42;;;;;;;8.75;3.60;;;;;;;4.86;75.04;92242.81;2064308;69;20136;-74
2022/12/23 01:45:27;;;;;;;8.40;3.10;;;;;;;4.91;75.06;92243.84;2064867;69;20199;-75
2022/12/23 01:47:55;;;;;;;5.95;2.85;;;;;;;4.95;75.22;92249.72;2064623;69;20676;-75
2022/12/23 01:50:47;;;;;;;7.38;3.55;;;;;;;4.38;77.58;92232.28;2064669;69;20313;-75
2022/12/23 01:53:24;;;;;;;7.43;3.53;;;;;;;4.61;77.02;92245.84;2057938;69;20222;-75
2022/12/23 01:55:59;;;;;;;6.70;3.67;;;;;;;4.72;76.07;92248.09;2064637;69;20211;-74
2022/12/23 01:58:50;;;;;;;7.10;3.70;;;;;;;4.77;76.38;92244.28;2065330;69;20175;-75
2022/12/23 02:04:04;;;;;;;8.32;3.28;;;;;;;4.93;75.99;92261.47;2064870;69;20149;-74
2022/12/23 02:09:21;;;;;;;8.98;3.63;;;;;;;4.49;78.44;92256.81;2064629;69;20152;-76
2022/12/23 02:11:46;;;;;;;10.70;3.58;;;;;;;4.72;77.05;92269.63;2064685;69;20153;-76
2022/12/23 02:17:18;;;;;;;4.45;3.10;;;;;;;4.79;76.88;92277.88;2064809;69;20141;-75
2022/12/23 02:20:26;;;;;;;5.55;3.17;;;;;;;4.82;76.23;92284.34;2063832;69;20465;-74
2022/12/23 02:23:31;;;;;;;7.00;3.75;;;;;;;4.85;76.93;92291.53;2064262;69;20208;-73
2022/12/23 02:25:59;;;;;;;6.25;2.50;;;;;;;4.77;77.78;92288.91;2064268;69;20240;-74
2022/12/23 02:28:34;;;;;;;5.95;2.97;;;;;;;4.41;78.87;92294.50;2064181;69;20493;-74
2022/12/23 02:31:09;;;;;;;6.47;3.60;;;;;;;4.39;79.70;92311.78;2064326;69;20173;-75
2022/12/23 02:33:34;;;;;;;12.23;3.60;;;;;;;4.21;80.52;92305.53;2064140;69;20481;-75
2022/12/23 02:36:24;;;;;;;6.82;3.67;;;;;;;4.15;80.99;92296.72;2064000;69;20689;-75
2022/12/23 02:39:12;;;;;;;7.28;3.40;;;;;;;4.30;80.59;92304.84;2064463;69;20238;-76
2022/12/23 02:41:46;;;;;;;6.53;3.28;;;;;;;4.39;79.51;92325.72;2064682;69;20137;-76
2022/12/23 02:44:23;;;;;;;7.22;3.50;;;;;;;4.32;79.85;92327.31;2064677;69;20473;-75
2022/12/23 02:46:58;;;;;;;6.72;3.15;;;;;;;4.42;79.76;92327.34;2064684;69;20219;-75
2022/12/23 02:49:47;;;;;;;6.70;3.50;;;;;;;4.45;79.54;92315.06;2064928;69;20197;-75
2022/12/23 02:52:16;;;;;;;5.30;3.20;;;;;;;4.46;78.98;92315.78;2064653;69;20132;-77
2022/12/23 02:54:55;;;;;;;6.05;3.38;;;;;;;4.34;79.37;92302.38;2064626;69;20192;-74
2022/12/23 02:57:28;;;;;;;6.22;3.60;;;;;;;4.55;78.55;92304.66;2064669;69;20177;-74
2022/12/23 02:59:55;;;;;;;7.05;3.75;;;;;;;4.56;79.01;92283.09;2064515;69;20243;-75
2022/12/23 03:02:21;;;;;;;7.03;3.80;;;;;;;4.60;79.22;92272.25;2064813;69;20192;-74
2022/12/23 03:04:48;;;;;;;6.60;3.45;;;;;;;4.50;79.75;92282.66;2064703;69;20232;-75
2022/12/23 03:07:28;;;;;;;6.55;3.25;;;;;;;4.56;80.17;92292.19;2064771;69;20575;-76
2022/12/23 03:10:10;;;;;;;8.07;4.10;;;;;;;4.64;79.57;92286.50;2064499;69;20141;-74
2022/12/23 03:12:58;;;;;;;7.82;3.72;;;;;;;4.59;79.47;92291.03;2064543;69;20152;-75
2022/12/23 03:15:27;;;;;;;5.47;3.47;;;;;;;4.57;79.25;92296.44;2064479;69;20133;-75
2022/12/23 03:17:58;;;;;;;6.28;3.40;;;;;;;4.30;80.40;92292.97;2064366;69;20207;-75
2022/12/23 03:20:33;;;;;;;8.50;3.58;;;;;;;4.49;80.13;92301.44;2064517;69;20630;-77
2022/12/23 03:23:19;;;;;;;6.05;3.35;;;;;;;4.38;79.80;92320.72;2064685;69;20141;-76
2022/12/23 03:25:56;;;;;;;8.65;3.42;;;;;;;4.42;80.74;92329.41;2064352;69;20604;-73
2022/12/23 03:28:32;;;;;;;9.05;4.03;;;;;;;3.76;82.38;92331.97;2064791;69;20167;-73
2022/12/23 03:31:02;;;;;;;7.13;3.75;;;;;;;4.04;82.21;92317.50;2064570;69;20216;-74
2022/12/23 03:33:34;;;;;;;5.85;3.60;;;;;;;4.28;80.81;92296.34;2064448;69;20222;-74
2022/12/23 03:36:23;;;;;;;5.75;3.33;;;;;;;4.08;80.65;92308.72;2064706;69;20145;-74
2022/12/23 03:38:50;;;;;;;6.78;3.28;;;;;;;4.18;81.08;92306.72;2064361;69;20589;-73
2022/12/23 03:41:22;;;;;;;6.75;3.45;;;;;;;4.26;80.99;92326.84;2063740;69;20145;-74
2022/12/23 03:43:56;;;;;;;7.18;3.70;;;;;;;4.25;80.57;92333.72;2064783;69;20194;-73
2022/12/23 03:46:33;;;;;;;8.35;5.18;;;;;;;4.08;82.53;92339.38;2064645;69;20145;-72
2022/12/23 03:49:06;;;;;;;11.60;5.35;;;;;;;4.28;81.42;92343.72;2064612;69;20248;-74
2022/12/23 03:51:39;;;;;;;9.82;4.75;;;;;;;4.45;81.18;92336.63;2064650;69;20168;-74
2022/12/23 03:54:13;;;;;;;8.25;4.38;;;;;;;4.31;80.90;92325.84;2064512;69;20188;-74
2022/12/23 03:56:42;;;;;;;9.40;5.10;;;;;;;4.13;82.07;92313.28;2064517;69;20214;-74
2022/12/23 03:59:17;;;;;;;7.97;5.00;;;;;;;4.39;81.18;92316.63;2064625;69;20240;-74
2022/12/23 04:01:55;;;;;;;7.65;4.82;;;;;;;4.43;80.61;92328.81;2064501;69;20141;-74
2022/12/23 04:04:58;;;;;;;8.35;4.50;;;;;;;4.46;80.70;92341.59;2064636;69;20152;-75
2022/12/23 04:07:44;;;;;;;7.63;4.57;;;;;;;4.43;80.05;92353.91;2063858;69;20141;-74
2022/12/23 04:10:11;;;;;;;8.65;5.38;;;;;;;4.26;82.14;92373.47;2064433;69;20172;-75
2022/12/23 04:12:38;;;;;;;22.80;11.82;;;;;;;4.34;81.55;92362.94;2064642;69;20172;-74
2022/12/23 04:15:04;;;;;;;34.20;17.25;;;;;;;4.41;80.65;92362.13;2064518;69;20140;-75
2022/12/23 04:17:29;;;;;;;17.35;9.25;;;;;;;4.54;80.22;92361.00;2064449;69;20149;-75
2022/12/23 04:19:55;;;;;;;8.93;4.20;;;;;;;4.56;81.00;92347.94;2063774;69;20613;-74
2022/12/23 04:22:21;;;;;;;5.75;2.90;;;;;;;4.62;81.53;92344.16;2064470;69;20199;-73
2022/12/23 04:24:46;;;;;;;5.18;2.40;;;;;;;4.58;81.64;92353.69;2064430;69;20153;-73
2022/12/23 04:27:14;;;;;;;11.75;5.13;;;;;;;4.05;83.59;92351.66;2064476;69;20217;-74
2022/12/23 04:29:40;;;;;;;8.95;4.60;;;;;;;4.30;83.01;92354.28;2067654;69;20590;-76
2022/12/23 04:32:05;;;;;;;9.23;4.75;;;;;;;4.42;81.88;92357.28;2071108;69;20144;-76
2022/12/23 04:34:31;;;;;;;8.32;4.50;;;;;;;4.55;81.04;92362.47;2067809;69;20314;-80
2022/12/23 04:36:56;;;;;;;8.10;4.25;;;;;;;4.58;80.27;92362.06;2071167;69;20140;-75
2022/12/23 04:39:22;;;;;;;8.25;4.47;;;;;;;4.62;80.53;92356.03;2070992;69;20236;-73
2022/12/23 04:41:49;;;;;;;7.93;4.03;;;;;;;4.66;80.13;92344.47;2071089;69;20144;-74
2022/12/23 04:44:15;;;;;;;5.28;3.13;;;;;;;4.71;80.84;92341.41;2070982;69;20132;-74
2022/12/23 04:46:41;;;;;;;6.72;3.13;;;;;;;4.70;82.26;92336.41;2071691;69;20258;-73
2022/12/23 04:49:06;;;;;;;6.93;4.05;;;;;;;4.31;82.70;92328.63;2068223;69;20152;-74
2022/12/23 04:51:32;;;;;;;6.60;4.68;;;;;;;4.55;81.99;92337.38;2071532;69;20513;-74
2022/12/23 04:53:58;;;;;;;7.78;4.50;;;;;;;4.51;81.36;92332.22;2068050;69;20155;-74
2022/12/23 04:56:23;;;;;;;10.07;4.65;;;;;;;4.67;81.42;92324.34;2071623;69;20143;-74
2022/12/23 04:58:49;;;;;;;8.25;4.22;;;;;;;4.61;81.86;92323.91;2067948;69;20139;-75
2022/12/23 05:01:15;;;;;;;14.48;9.45;;;;;;;4.27;82.44;92314.38;2071808;69;20140;-74
2022/12/23 05:03:41;;;;;;;13.05;7.63;;;;;;;4.50;81.74;92308.47;2071713;69;20219;-74
2022/12/23 05:06:07;;;;;;;14.00;7.75;;;;;;;4.56;81.16;92308.19;2071708;69;20164;-74
2022/12/23 05:08:33;;;;;;;10.13;5.00;;;;;;;4.63;81.58;92312.91;2071654;69;20511;-74
2022/12/23 05:10:59;;;;;;;7.97;5.50;;;;;;;4.55;82.02;92315.81;2068194;69;20475;-75
2022/12/23 05:13:24;;;;;;;9.70;5.85;;;;;;;4.45;83.02;92308.75;2071654;69;20563;-75
2022/12/23 05:15:52;;;;;;;5.57;2.88;;;;;;;4.62;84.85;92313.50;2071621;69;20164;-75
2022/12/23 05:18:19;;;;;;;4.40;2.50;;;;;;;4.88;83.26;92314.75;2071586;69;20156;-75
2022/12/23 05:20:45;;;;;;;5.20;3.05;;;;;;;4.76;82.81;92320.88;2071537;69;20172;-74
2022/12/23 05:23:11;;;;;;;10.07;7.22;;;;;;;4.72;82.05;92319.81;2071793;69;20519;-75
2022/12/23 05:25:38;;;;;;;16.27;9.75;;;;;;;4.57;82.17;92326.38;2068073;69;20487;-74
2022/12/23 05:28:05;;;;;;;16.67;10.05;;;;;;;4.37;82.68;92336.00;2071576;69;20263;-75
2022/12/23 05:30:31;;;;;;;14.40;8.30;;;;;;;4.51;82.37;92342.66;2071577;69;20472;-75
2022/12/23 05:32:57;;;;;;;11.23;7.43;;;;;;;4.46;82.24;92340.88;2071544;69;20175;-75
2022/12/23 05:35:25;;;;;;;13.00;7.50;;;;;;;4.58;82.21;92353.69;2071638;69;20340;-75
2022/12/23 05:37:51;;;;;;;14.90;7.90;;;;;;;4.63;81.51;92357.53;2071581;69;20185;-75
2022/12/23 05:40:17;;;;;;;16.92;10.50;;;;;;;4.66;81.22;92363.97;2071411;69;20145;-75
2022/12/23 05:42:43;;;;;;;11.68;7.32;;;;;;;4.61;81.05;92362.22;2071542;69;20140;-75
2022/12/23 05:45:10;;;;;;;10.43;7.13;;;;;;;4.54;81.24;92361.00;2071585;69;20144;-75
2022/12/23 05:47:35;;;;;;;11.93;8.75;;;;;;;4.54;81.07;92358.22;2071533;69;20145;-75
2022/12/23 05:50:02;;;;;;;13.15;7.50;;;;;;;4.62;81.12;92374.81;2071636;69;20489;-75
2022/12/23 05:52:28;;;;;;;12.85;7.90;;;;;;;4.68;80.31;92364.88;2071686;69;20148;-75
2022/12/23 05:54:53;;;;;;;12.15;7.97;;;;;;;4.65;80.15;92356.94;2071346;69;20146;-75
2022/12/23 05:57:19;;;;;;;12.23;8.35;;;;;;;4.51;80.50;92351.00;2071370;69;20148;-75
2022/12/23 05:59:44;;;;;;;12.35;8.43;;;;;;;4.58;80.33;92339.00;2071559;69;20143;-75
2022/12/23 06:02:10;;;;;;;19.33;12.65;;;;;;;4.45;81.22;92342.94;2071438;69;20144;-75
2022/12/23 06:04:35;;;;;;;19.23;12.98;;;;;;;4.34;82.09;92344.19;2068155;69;20150;-75
2022/12/23 06:07:01;;;;;;;22.17;14.55;;;;;;;4.50;81.56;92347.50;2071518;69;20562;-75
2022/12/23 06:09:28;;;;;;;19.67;13.63;;;;;;;4.50;80.88;92341.19;2071376;69;20182;-74
2022/12/23 06:11:54;;;;;;;22.30;13.57;;;;;;;4.52;81.74;92361.56;2071531;69;20579;-74
2022/12/23 06:14:19;;;;;;;22.80;13.90;;;;;;;4.60;81.03;92364.25;2071564;69;20495;-74
2022/12/23 06:16:45;;;;;;;23.10;14.55;;;;;;;4.61;80.80;92376.88;2065290;69;20140;-75
2022/12/23 06:19:10;;;;;;;20.13;13.13;;;;;;;4.61;82.00;92382.44;2071563;69;20308;-75
2022/12/23 06:21:36;;;;;;;22.80;13.25;;;;;;;4.24;82.83;92387.97;2071467;69;20612;-75
2022/12/23 06:24:02;;;;;;;25.05;15.32;;;;;;;4.36;82.54;92379.13;2071439;69;20183;-75
2022/12/23 06:26:27;;;;;;;28.60;18.55;;;;;;;4.56;81.15;92352.78;2071542;69;20180;-75
2022/12/23 06:28:53;;;;;;;38.90;23.70;;;;;;;4.50;82.69;92355.84;2071383;69;20163;-75
2022/12/23 06:31:19;;;;;;;26.17;17.20;;;;;;;4.64;81.72;92353.41;2071457;69;20623;-76
2022/12/23 06:33:44;;;;;;;24.63;15.63;;;;;;;4.66;81.51;92348.00;2071420;69;20136;-74
2022/12/23 06:36:10;;;;;;;23.30;13.93;;;;;;;4.65;81.56;92348.56;2071545;69;20140;-74
2022/12/23 06:38:35;;;;;;;19.65;14.07;;;;;;;4.26;83.55;92368.66;2071557;69;20159;-74
2022/12/23 06:41:01;;;;;;;12.32;8.20;;;;;;;4.51;84.06;92376.09;2071467;69;20155;-75
2022/12/23 06:43:26;;;;;;;18.05;10.95;;;;;;;4.69;83.54;92376.78;2071530;69;20148;-75
2022/12/23 06:45:52;;;;;;;31.40;17.83;;;;;;;4.47;82.94;92379.31;2071452;69;20491;-74
2022/12/23 06:48:19;;;;;;;30.27;16.70;;;;;;;4.71;82.18;92369.28;2071409;69;20168;-75
2022/12/23 06:50:45;;;;;;;24.98;14.88;;;;;;;4.53;82.04;92367.88;2071468;69;20138;-75
2022/12/23 06:53:11;;;;;;;24.77;15.23;;;;;;;4.52;82.85;92360.84;2071438;69;20148;-75
2022/12/23 06:55:37;;;;;;;20.40;11.57;;;;;;;4.63;83.30;92363.09;2071441;69;20139;-75
2022/12/23 06:58:04;;;;;;;6.82;4.30;;;;;;;4.80;83.95;92356.69;2071363;69;20148;-75
2022/12/23 07:00:29;;;;;;;4.70;1.70;;;;;;;4.96;83.14;92362.78;2071379;69;20143;-75
2022/12/23 07:02:55;;;;;;;2.25;1.15;;;;;;;4.93;82.40;92364.66;2071360;69;20143;-75
2022/12/23 07:05:21;;;;;;;5.97;3.22;;;;;;;4.99;82.35;92359.53;2071572;69;20519;-75
2022/12/23 07:07:47;;;;;;;28.27;13.10;;;;;;;4.63;84.30;92371.47;2067962;69;20275;-75
2022/12/23 07:10:12;;;;;;;29.38;16.08;;;;;;;4.77;83.73;92364.19;2071280;69;20148;-76
2022/12/23 07:12:38;;;;;;;30.10;16.13;;;;;;;4.84;82.51;92373.75;2071513;69;20155;-76
2022/12/23 07:15:05;;;;;;;34.50;17.23;;;;;;;4.83;82.33;92392.53;2071391;69;20551;-75
2022/12/23 07:17:31;;;;;;;26.45;14.25;;;;;;;4.93;81.74;92397.41;2071378;69;20152;-75
2022/12/23 07:19:57;;;;;;;37.90;17.92;;;;;;;4.98;83.01;92399.19;2071209;69;20510;-76
2022/12/23 07:22:22;;;;;;;41.33;19.73;;;;;;;4.67;82.63;92404.50;2071478;69;20197;-76
2022/12/23 07:24:48;;;;;;;55.28;25.92;;;;;;;4.54;84.89;92411.19;2071443;69;20175;-75
2022/12/23 07:27:13;;;;;;;57.58;25.52;;;;;;;4.85;82.83;92397.53;2071382;69;20591;-75
2022/12/23 07:29:39;;;;;;;43.95;21.52;;;;;;;5.02;82.42;92388.34;2071247;69;20180;-75
2022/12/23 07:32:04;;;;;;;40.38;19.88;;;;;;;4.91;82.62;92398.00;2071366;69;20639;-76
2022/12/23 07:34:30;;;;;;;43.50;22.15;;;;;;;5.01;83.01;92409.19;2071359;69;20179;-75
2022/12/23 07:36:56;;;;;;;35.53;18.40;;;;;;;4.96;82.79;92407.41;2071364;69;20140;-75
2022/12/23 07:39:21;;;;;;;37.95;16.95;;;;;;;5.13;82.21;92414.94;2071231;69;20274;-75
2022/12/23 07:41:47;;;;;;;33.83;17.13;;;;;;;4.70;83.59;92415.22;2071381;69;20148;-75
2022/12/23 07:44:13;;;;;;;44.08;22.23;;;;;;;4.62;84.48;92419.44;2071323;69;20148;-75
2022/12/23 07:46:38;;;;;;;42.63;22.52;;;;;;;4.72;84.61;92417.41;2071323;69;20144;-76
2022/12/23 07:49:04;;;;;;;42.72;21.98;;;;;;;4.83;83.44;92414.84;2071456;69;20190;-75
2022/12/23 07:51:30;;;;;;;39.45;19.08;;;;;;;4.95;82.61;92409.47;2071326;69;20152;-76
2022/12/23 07:53:56;;;;;;;33.35;18.83;;;;;;;5.05;82.53;92403.91;2071331;69;20147;-76
2022/12/23 07:56:22;;;;;;;37.70;20.55;;;;;;;4.99;82.34;92373.50;2071395;69;20624;-76
2022/12/23 07:58:52;;;;;;;34.08;19.00;;;;;;;5.23;82.10;92404.56;2071347;69;20575;-76
2022/12/23 08:01:18;;;;;;;35.08;20.00;;;;;;;4.89;84.24;92391.53;2071251;69;20148;-76
2022/12/23 08:03:45;;;;;;;37.13;20.40;;;;;;;5.13;83.63;92389.81;2071275;69;20182;-75
2022/12/23 08:06:13;;;;;;;39.65;22.38;;;;;;;5.15;83.16;92390.00;2071259;69;20148;-75
2022/12/23 08:08:40;;;;;;;40.55;21.90;;;;;;;5.25;83.46;92397.06;2071205;69;20163;-76
2022/12/23 08:11:08;;;;;;;34.28;20.20;;;;;;;5.29;83.01;92382.69;2071221;69;20589;-76
2022/12/23 08:13:36;;;;;;;41.03;21.05;;;;;;;5.26;83.34;92395.75;2071197;69;20225;-76
2022/12/23 08:16:03;;;;;;;34.78;20.20;;;;;;;5.23;83.63;92408.09;2071369;69;20278;-76
2022/12/23 08:18:31;;;;;;;27.30;16.85;;;;;;;5.28;83.69;92386.81;2071190;69;20140;-76
2022/12/23 08:21:05;;;;;;;13.18;8.27;;;;;;;5.59;83.28;92384.22;2071737;69;20148;-76
2022/12/23 08:23:31;;;;;;;11.27;5.45;;;;;;;5.80;82.58;92398.31;2071851;69;20148;-77
2022/12/23 08:26:08;;;;;;;23.40;13.43;;;;;;;5.41;83.63;92394.03;2071665;69;20283;-77
2022/12/23 08:28:34;;;;;;;21.10;12.38;;;;;;;5.66;82.83;92397.28;2071767;69;20608;-76
2022/12/23 08:31:11;;;;;;;18.70;11.68;;;;;;;5.66;83.65;92400.06;2071700;69;20645;-76
2022/12/23 08:33:38;;;;;;;20.45;11.23;;;;;;;5.63;83.29;92392.88;2071721;69;20262;-76
2022/12/23 08:36:05;;;;;;;15.52;8.75;;;;;;;5.60;83.84;92394.78;2071669;69;20547;-78
2022/12/23 08:38:31;;;;;;;14.80;8.68;;;;;;;5.69;83.25;92381.44;2071677;69;20151;-76
2022/12/23 08:40:57;;;;;;;14.73;8.80;;;;;;;5.77;82.89;92382.00;2071730;69;20235;-77
2022/12/23 08:43:23;;;;;;;16.30;9.15;;;;;;;5.76;82.75;92375.69;2071835;69;20143;-78
2022/12/23 08:45:48;;;;;;;11.27;7.32;;;;;;;5.72;83.87;92385.81;2071661;69;20128;-78
2022/12/23 08:48:14;;;;;;;7.55;4.15;;;;;;;5.80;84.26;92383.63;2071721;69;20136;-79
2022/12/23 08:50:42;;;;;;;5.25;3.22;;;;;;;5.97;84.76;92393.94;2071736;69;20186;-78
2022/12/23 08:53:08;;;;;;;5.53;3.30;;;;;;;6.02;84.25;92385.28;2071729;69;20128;-75
2022/12/23 08:55:42;;;;;;;4.15;3.10;;;;;;;6.14;84.35;92387.44;2068412;69;20141;-77
2022/12/23 08:58:09;;;;;;;5.70;3.08;;;;;;;6.14;84.58;92385.41;2071730;69;20148;-75
2022/12/23 09:00:35;;;;;;;4.85;3.17;;;;;;;6.28;83.54;92383.63;2068367;69;20120;-75
2022/12/23 09:03:02;;;;;;;5.47;2.95;;;;;;;6.27;83.63;92378.63;2071748;69;20136;-76
2022/12/23 09:05:29;;;;;;;4.00;2.63;;;;;;;6.41;83.82;92390.06;2071888;69;20185;-77
2022/12/23 09:07:56;;;;;;;3.75;2.40;;;;;;;6.57;84.25;92388.41;2071573;69;20518;-77
2022/12/23 09:10:22;;;;;;;4.70;3.08;;;;;;;6.40;83.71;92391.41;2071495;69;20255;-77
2022/12/23 09:12:49;;;;;;;4.50;2.95;;;;;;;6.58;82.29;92392.69;2071743;69;20587;-76
2022/12/23 09:15:14;;;;;;;8.45;2.80;;;;;;;6.45;83.13;92407.13;2071678;69;20491;-77
2022/12/23 09:17:40;;;;;;;18.10;7.32;;;;;;;6.09;83.96;92401.16;2071567;69;20156;-79
2022/12/23 09:20:07;;;;;;;12.98;7.75;;;;;;;6.20;82.97;92399.09;2071510;69;20264;-78
2022/12/23 09:22:33;;;;;;;12.57;8.27;;;;;;;6.51;81.86;92421.56;2071632;69;20650;-78
2022/12/23 09:24:59;;;;;;;24.42;13.02;;;;;;;6.58;81.82;92426.97;2071503;69;20143;-78
2022/12/23 09:27:24;;;;;;;16.65;10.50;;;;;;;6.62;81.11;92412.53;2071656;69;20244;-78
2022/12/23 09:29:50;;;;;;;12.45;8.23;;;;;;;6.70;80.96;92418.72;2071681;69;20202;-78
2022/12/23 09:32:16;;;;;;;16.63;9.02;;;;;;;6.42;81.22;92397.88;2071587;69;20576;-76
2022/12/23 09:34:41;;;;;;;15.18;8.18;;;;;;;6.41;81.98;92381.69;2071562;69;20250;-76
2022/12/23 09:37:07;;;;;;;20.23;10.50;;;;;;;6.56;82.14;92384.16;2071590;69;20170;-76
2022/12/23 09:39:33;;;;;;;19.63;11.25;;;;;;;5.93;82.81;92397.19;2071573;69;20505;-76
2022/12/23 09:42:01;;;;;;;27.67;14.95;;;;;;;6.11;83.93;92389.38;2071546;69;20205;-75
2022/12/23 09:44:57;;;;;;;22.50;13.40;;;;;;;6.59;82.04;92382.97;2071633;69;20148;-77
2022/12/23 09:47:26;;;;;;;20.88;12.45;;;;;;;6.80;82.12;92387.91;2071747;69;20152;-76
2022/12/23 09:49:57;;;;;;;20.80;11.95;;;;;;;6.91;81.34;92378.16;2071493;69;20172;-76
2022/12/23 09:52:32;;;;;;;19.15;12.70;;;;;;;7.15;81.77;92391.03;2071640;69;20148;-76
2022/12/23 09:54:59;;;;;;;23.48;12.95;;;;;;;7.30;80.17;92399.03;2071398;69;20140;-78
2022/12/23 09:57:35;;;;;;;21.48;12.82;;;;;;;7.19;80.47;92391.28;2071585;69;20148;-76
2022/12/23 10:00:13;;;;;;;21.45;12.52;;;;;;;7.00;80.40;92410.94;2071664;69;20181;-76
2022/12/23 10:03:16;;;;;;;25.85;14.35;;;;;;;6.08;83.79;92427.63;2071526;69;20155;-78
2022/12/23 10:06:06;;;;;;;27.98;16.73;;;;;;;6.41;82.98;92420.81;2068238;69;20171;-78
2022/12/23 10:08:42;;;;;;;22.25;12.93;;;;;;;6.60;82.21;92424.34;2071514;69;20231;-76
2022/12/23 10:11:17;;;;;;;26.38;16.10;;;;;;;6.46;81.75;92419.78;2071450;69;20148;-76
2022/12/23 10:13:48;;;;;;;27.20;16.50;;;;;;;6.56;81.70;92410.06;2071521;69;20137;-76
2022/12/23 10:16:24;;;;;;;26.88;15.13;;;;;;;6.71;80.85;92395.00;2071492;69;20187;-76
2022/12/23 10:18:58;;;;;;;29.35;19.23;;;;;;;6.44;81.94;92395.22;2071559;69;20284;-79
2022/12/23 10:22:04;;;;;;;28.42;17.95;;;;;;;6.44;83.61;92397.28;2071525;69;20259;-79
2022/12/23 10:24:40;;;;;;;43.63;22.40;;;;;;;6.51;82.39;92399.19;2053862;69;20158;-79
2022/12/23 10:27:29;;;;;;;36.00;21.58;;;;;;;6.43;82.19;92395.81;2054045;70;20177;-79
2022/12/23 10:29:59;;;;;;;41.15;22.42;;;;;;;6.69;81.57;92397.66;2054027;69;20258;-76
2022/12/23 10:32:41;;;;;;;36.78;21.73;;;;;;;6.77;81.02;92391.88;2054126;69;20142;-79
2022/12/23 10:35:23;;;;;;;35.70;21.33;;;;;;;6.67;82.07;92386.31;2054091;69;20283;-79
2022/12/23 10:37:58;;;;;;;31.80;20.43;;;;;;;6.64;82.06;92404.28;2053984;69;20157;-79
2022/12/23 10:40:38;;;;;;;40.65;18.95;;;;;;;6.31;83.42;92412.44;2053847;69;20154;-79
2022/12/23 10:43:34;;;;;;;44.47;22.50;;;;;;;6.07;83.56;92405.84;2053805;69;20185;-80
2022/12/23 10:46:25;;;;;;;37.75;17.85;;;;;;;6.51;82.23;92396.41;2053944;69;20161;-77
2022/12/23 10:49:24;;;;;;;48.22;23.95;;;;;;;6.67;81.64;92382.78;2054190;69;20138;-79
2022/12/23 10:51:58;;;;;;;41.28;25.42;;;;;;;6.62;81.46;92388.09;2054029;69;20237;-76
2022/12/23 10:54:32;;;;;;;41.80;25.10;;;;;;;6.61;81.90;92381.06;2056503;69;20239;-75
2022/12/23 10:56:59;;;;;;;36.45;21.40;;;;;;;5.96;83.79;92392.50;2071383;69;20141;-76
2022/12/23 10:59:29;;;;;;;31.35;18.42;;;;;;;6.34;83.88;92397.28;2071347;69;20363;-76
2022/12/23 11:02:10;;;;;;;29.92;17.38;;;;;;;6.58;82.54;92384.28;2071333;69;20664;-75
2022/12/23 11:04:41;;;;;;;38.20;21.40;;;;;;;6.63;82.66;92378.38;2071395;69;20533;-76
2022/12/23 11:07:11;;;;;;;44.17;24.20;;;;;;;6.47;83.61;92370.94;2071600;69;20148;-76
2022/12/23 11:09:41;;;;;;;36.88;23.23;;;;;;;6.56;82.90;92362.53;2071175;69;20550;-76
2022/12/23 11:12:09;;;;;;;38.72;23.05;;;;;;;6.23;83.61;92364.34;2071312;69;20204;-75
2022/12/23 11:14:56;;;;;;;38.42;24.00;;;;;;;6.85;81.88;92367.28;2071453;69;20186;-76
2022/12/23 11:17:21;;;;;;;48.05;27.48;;;;;;;6.99;81.89;92367.50;2071535;69;20187;-76
2022/12/23 11:20:04;;;;;;;50.40;28.08;;;;;;;7.09;81.38;92366.13;2071285;69;20152;-77
2022/12/23 11:22:29;;;;;;;44.45;26.13;;;;;;;7.20;81.29;92356.38;2071392;69;20184;-76
2022/12/23 11:25:19;;;;;;;42.72;26.17;;;;;;;7.29;81.45;92346.44;2070840;69;20203;-75
2022/12/23 11:27:45;;;;;;;43.20;24.95;;;;;;;7.59;80.94;92348.44;2071062;69;20592;-76
2022/12/23 11:30:17;;;;;;;47.08;25.95;;;;;;;7.76;79.98;92335.50;2071143;69;20235;-76
2022/12/23 11:32:43;;;;;;;;;;;;;;;7.64;81.54;92327.75;2071376;69;20152;-75
2022/12/23 11:35:28;;;;;;;40.97;24.30;;;;;;;7.92;80.29;92316.19;2067861;69;20041;-76
2022/12/23 11:37:54;;;;;;;46.15;26.05;;;;;;;7.87;79.74;92318.72;2068602;69;20163;-76
2022/12/23 11:40:27;;;;;;;46.13;29.58;;;;;;;8.01;79.05;92302.09;2070986;69;20223;-76
2022/12/23 11:43:02;;;;;;;63.97;42.92;;;;;;;7.77;80.92;92314.56;2071076;69;20148;-75
2022/12/23 11:45:32;;;;;;;56.47;35.90;;;;;;;7.25;81.44;92315.38;2071299;69;20132;-76
2022/12/23 11:47:57;;;;;;;75.70;44.80;;;;;;;7.62;81.41;92310.09;2067941;69;20148;-75
2022/12/23 11:50:34;;;;;;;66.97;39.53;;;;;;;7.64;80.13;92307.41;2071182;69;20163;-76
2022/12/23 11:53:08;;;;;;;67.57;39.50;;;;;;;7.92;79.54;92311.31;2071150;69;20148;-75
2022/12/23 11:55:34;;;;;;;57.58;34.03;;;;;;;7.83;79.77;92303.72;2071175;69;20331;-76
2022/12/23 11:58:02;;;;;;;53.75;32.55;;;;;;;7.80;80.27;92297.28;2071200;69;20156;-76
2022/12/23 12:00:37;;;;;;;40.47;25.77;;;;;;;7.75;79.73;92306.75;2071223;69;20623;-76
2022/12/23 12:03:05;;;;;;;36.67;21.65;;;;;;;7.18;81.97;92307.91;2071199;69;20243;-77
2022/12/23 12:05:37;;;;;;;32.75;19.88;;;;;;;7.48;80.88;92292.38;2071047;69;20179;-77
2022/12/23 12:08:08;;;;;;;45.42;26.50;;;;;;;7.31;80.25;92304.56;2067876;69;20604;-78
2022/12/23 12:10:37;;;;;;;44.67;28.25;;;;;;;7.30;80.98;92311.50;2071059;69;20143;-77
2022/12/23 12:13:07;;;;;;;50.70;30.30;;;;;;;7.40;80.44;92289.78;2071328;69;20219;-77